»·PEaware :: AAL2447 KMCO-KMIA

AAL2447 :: KMCO-KMIA

FLIGHT INFORMATION

Flight Status: Arrived
Operator:
American Airlines
More flights by this operator :: More flights under this callsign
Pilot: Drew Leevy (13237)
Aircraft: BOEING 767-300
(B763)
More flights by this aircraft type
Origin: KMCO Orlando Intl
United States
Destination: KMIA Miami Intl
United States
More flights between these airports :: More routes between these airports
Route: PBI HILEY6 8R
File this flight plan on PilotEdge
Remarks:
Altitude:
(Current/Filed)
23,000ft
Speed:
(Current/Filed)
134kts
Departed: 10-May-17 10:12 PM
Arrived: 10-May-17 10:51 PM
Distance/Time
Traveled:
167nm/0:38
Distance/Time
To Go:
Arrived

Flight Plot

Page will automatically refresh every two minutes.

Flight plan parsing failed; only flown route is shown


Map Options




Map Legend


Flown Route
Filed Route
Departure Airport
Arrival Airport
Navaid (VOR, NDB)
Fix

Horizontal Profiles

Position Reports

Time Latitude Longitude Heading Altitude Ground
Speed
10-May-17 22:08 28.438201 -81.314679 307 107ft 12kts
10-May-17 22:09 28.438599 -81.318362 314 107ft 6kts
10-May-17 22:10 28.441836 -81.318998 1 107ft 15kts
10-May-17 22:11 28.446100 -81.319062 358 107ft 15kts
10-May-17 22:12 28.448232 -81.319962 269 107ft 9kts
10-May-17 22:13 28.447833 -81.322310 176 107ft 0kts
10-May-17 22:14 28.444784 -81.322273 180 107ft 86kts
10-May-17 22:15 28.395267 -81.322569 180 2643ft 229kts
10-May-17 22:16 28.333687 -81.302845 125 6262ft 256kts
10-May-17 22:17 28.288232 -81.235633 119 9892ft 286kts
10-May-17 22:18 28.230445 -81.170037 141 13465ft 315kts
10-May-17 22:19 28.150517 -81.110945 152 15922ft 374kts
10-May-17 22:20 28.055582 -81.043824 147 18332ft 426kts
10-May-17 22:21 27.952729 -80.971114 146 21355ft 451kts
10-May-17 22:22 27.846163 -80.896099 146 23073ft 450kts
10-May-17 22:23 27.736643 -80.819185 146 23099ft 470kts
10-May-17 22:24 27.626415 -80.741968 146 23102ft 469kts
10-May-17 22:25 27.515998 -80.664801 146 23100ft 469kts
10-May-17 22:26 27.405591 -80.587828 146 23104ft 468kts
10-May-17 22:27 27.295214 -80.511058 146 23106ft 468kts
10-May-17 22:28 27.185191 -80.434713 146 23111ft 468kts
10-May-17 22:29 27.074487 -80.358076 146 23136ft 468kts
10-May-17 22:30 26.964324 -80.282000 147 23134ft 467kts
10-May-17 22:31 26.884139 -80.226732 147 23126ft 467kts
10-May-17 22:32 26.777371 -80.153287 147 23125ft 467kts
10-May-17 22:33 26.663521 -80.086725 166 23123ft 465kts
10-May-17 22:34 26.537108 -80.061932 172 23128ft 464kts
10-May-17 22:35 26.409557 -80.039784 172 22926ft 466kts
10-May-17 22:36 26.284439 -80.018668 175 21484ft 448kts
10-May-17 22:37 26.165246 -80.038673 196 19940ft 430kts
10-May-17 22:38 26.051937 -80.070212 196 18364ft 417kts
10-May-17 22:39 25.952249 -80.121499 231 16799ft 386kts
10-May-17 22:40 25.903488 -80.221496 245 14894ft 349kts
10-May-17 22:41 25.881535 -80.323630 265 12728ft 359kts
10-May-17 22:42 25.875004 -80.431734 268 10428ft 328kts
10-May-17 22:43 25.869534 -80.524216 267 8465ft 283kts
10-May-17 22:44 25.864606 -80.606566 267 6895ft 257kts
10-May-17 22:45 25.824774 -80.655352 163 5181ft 232kts
10-May-17 22:46 25.793045 -80.604068 96 3357ft 212kts
10-May-17 22:47 25.791407 -80.544589 87 3219ft 185kts
10-May-17 22:48 25.793046 -80.489026 86 3155ft 165kts
10-May-17 22:49 25.795054 -80.438564 87 2476ft 158kts
10-May-17 22:50 25.796934 -80.392922 87 1571ft 142kts
10-May-17 22:51 25.798840 -80.346921 88 893ft 150kts
10-May-17 22:52 25.800726 -80.300400 87 49ft 147kts
10-May-17 22:53 25.801079 -80.279697 122 17ft 18kts
10-May-17 22:54 25.799608 -80.281477 267 17ft 12kts
10-May-17 22:55 25.798367 -80.282654 177 17ft 1kts
10-May-17 22:56 25.798330 -80.282652 177 17ft 0kts
10-May-17 22:57 25.798330 -80.282652 177 17ft 0kts
10-May-17 22:58 25.798330 -80.282652 177 17ft 0kts
10-May-17 22:59 25.798330 -80.282652 177 17ft 0kts
10-May-17 23:00 25.798330 -80.282652 177 17ft 0kts
10-May-17 23:01 25.798330 -80.282652 177 17ft 0kts
10-May-17 23:02 25.798330 -80.282652 177 17ft 0kts
10-May-17 23:03 25.798330 -80.282652 177 17ft 0kts
10-May-17 23:04 25.798330 -80.282652 177 17ft 0kts
10-May-17 23:05 25.798330 -80.282652 177 17ft 0kts

Navigation Log

Ident Type
Flight plan parsing failed, navigation log unavailable